createdAt,value
2018-12-20T00:00:30.384Z,5.60
2018-12-20T00:02:59.204Z,5.70
2018-12-20T00:05:28.034Z,5.60
2018-12-20T00:07:56.653Z,5.60
2018-12-20T00:10:25.532Z,5.60
2018-12-20T00:12:54.178Z,5.60
2018-12-20T00:15:22.876Z,5.70
2018-12-20T00:17:51.957Z,5.60
2018-12-20T00:20:20.560Z,5.60
2018-12-20T00:22:49.263Z,5.60
2018-12-20T00:25:18.205Z,5.60
2018-12-20T00:27:47.112Z,5.50
2018-12-20T00:30:15.856Z,5.50
2018-12-20T00:32:44.599Z,5.50
2018-12-20T00:35:13.515Z,5.50
2018-12-20T00:37:42.158Z,5.50
2018-12-20T00:40:11.047Z,5.50
2018-12-20T00:42:39.662Z,5.40
2018-12-20T00:45:08.460Z,5.40
2018-12-20T00:47:37.229Z,5.40
2018-12-20T00:50:06.629Z,5.40
2018-12-20T00:52:35.257Z,5.40
2018-12-20T00:55:04.155Z,5.40
2018-12-20T00:57:32.789Z,5.40
2018-12-20T01:00:01.371Z,5.40
2018-12-20T01:02:29.985Z,5.40
2018-12-20T01:04:58.578Z,5.40
2018-12-20T01:07:27.172Z,5.40
2018-12-20T01:09:55.861Z,5.40
2018-12-20T01:12:24.652Z,5.40
2018-12-20T01:14:53.331Z,5.40
2018-12-20T01:17:21.774Z,5.40
2018-12-20T01:19:50.365Z,5.40
2018-12-20T01:22:18.879Z,5.40
2018-12-20T01:24:47.944Z,5.40
2018-12-20T01:27:16.462Z,5.40
2018-12-20T01:29:44.980Z,5.40
2018-12-20T01:32:13.494Z,5.50
2018-12-20T01:34:42.064Z,5.40
2018-12-20T01:37:10.614Z,5.40
2018-12-20T01:39:39.232Z,5.40
2018-12-20T01:42:07.709Z,5.40
2018-12-20T01:44:36.327Z,5.40
2018-12-20T01:47:04.811Z,5.40
2018-12-20T01:49:33.322Z,5.40
2018-12-20T01:52:01.889Z,5.40
2018-12-20T01:54:30.365Z,5.40
2018-12-20T01:56:59.010Z,5.40
2018-12-20T01:59:27.621Z,5.40
2018-12-20T02:01:56.279Z,5.40
2018-12-20T02:04:24.850Z,5.40
2018-12-20T02:06:53.292Z,5.40
2018-12-20T02:09:22.167Z,5.30
2018-12-20T02:11:50.824Z,5.40
2018-12-20T02:14:19.333Z,5.40
2018-12-20T02:17:02.747Z,5.40
2018-12-20T02:19:31.465Z,5.40
2018-12-20T02:22:01.947Z,5.40
2018-12-20T02:24:30.875Z,5.40
2018-12-20T02:26:59.688Z,5.40
2018-12-20T02:29:28.536Z,5.50
2018-12-20T02:32:04.253Z,5.40
2018-12-20T02:34:32.994Z,5.40
2018-12-20T02:37:01.648Z,5.40
2018-12-20T02:39:30.208Z,5.40
2018-12-20T02:41:58.689Z,5.40
2018-12-20T02:44:27.769Z,5.40
2018-12-20T02:46:56.278Z,5.40
2018-12-20T02:49:24.850Z,5.40
2018-12-20T02:51:55.645Z,5.40
2018-12-20T02:54:24.282Z,5.40
2018-12-20T02:56:53.037Z,5.40
2018-12-20T02:59:22.073Z,5.40
2018-12-20T03:01:50.990Z,5.40
2018-12-20T03:04:19.581Z,5.40
2018-12-20T03:06:48.145Z,5.40
2018-12-20T03:09:18.262Z,5.40
2018-12-20T03:11:47.062Z,5.40
2018-12-20T03:14:29.370Z,5.40
2018-12-20T03:16:58.007Z,5.40
2018-12-20T03:19:26.818Z,5.30
2018-12-20T03:21:56.122Z,5.30
2018-12-20T03:24:25.480Z,5.30
2018-12-20T03:26:54.221Z,5.30
2018-12-20T03:29:22.737Z,5.30
2018-12-20T03:31:51.784Z,5.20
2018-12-20T03:34:20.816Z,5.20
2018-12-20T03:36:49.367Z,5.10
2018-12-20T03:39:18.157Z,5.10
2018-12-20T03:41:46.968Z,5.10
2018-12-20T03:44:15.600Z,5.00
2018-12-20T03:46:44.373Z,5.00
2018-12-20T03:49:12.995Z,5.00
2018-12-20T03:51:41.724Z,5.00
2018-12-20T03:54:10.403Z,4.90
2018-12-20T03:56:39.096Z,4.90
2018-12-20T03:59:07.562Z,5.00
2018-12-20T04:01:36.154Z,5.00
2018-12-20T04:04:04.965Z,5.00
2018-12-20T04:06:33.693Z,5.00
2018-12-20T04:09:02.377Z,5.10
2018-12-20T04:11:30.890Z,5.10
2018-12-20T04:13:59.424Z,5.00
2018-12-20T04:16:27.960Z,5.10
2018-12-20T04:18:56.603Z,5.10
2018-12-20T04:21:25.252Z,5.10
2018-12-20T04:23:53.743Z,5.10
2018-12-20T04:26:22.239Z,5.10
2018-12-20T04:28:50.740Z,5.00
2018-12-20T04:31:19.378Z,5.10
2018-12-20T04:33:48.313Z,5.10
2018-12-20T04:36:17.184Z,5.00
2018-12-20T04:38:45.745Z,5.00
2018-12-20T04:41:14.289Z,5.10
2018-12-20T04:43:42.793Z,5.10
2018-12-20T04:46:11.297Z,5.10
2018-12-20T04:48:39.925Z,5.10
2018-12-20T04:51:08.538Z,5.10
2018-12-20T04:53:37.248Z,5.10
2018-12-20T04:56:06.034Z,5.10
2018-12-20T04:58:34.600Z,5.10
2018-12-20T05:01:03.188Z,5.10
2018-12-20T05:03:31.781Z,5.10
2018-12-20T05:06:00.259Z,5.10
2018-12-20T05:08:28.803Z,5.10
2018-12-20T05:10:57.349Z,5.20
2018-12-20T05:13:26.076Z,5.10
2018-12-20T05:15:56.400Z,5.10
2018-12-20T05:18:26.800Z,5.10
2018-12-20T05:20:55.584Z,5.10
2018-12-20T05:23:24.111Z,5.20
2018-12-20T05:25:52.558Z,5.20
2018-12-20T05:28:21.119Z,5.20
2018-12-20T05:30:49.858Z,5.20
2018-12-20T05:33:18.769Z,5.20
2018-12-20T05:35:47.302Z,5.20
2018-12-20T05:38:15.958Z,5.20
2018-12-20T05:40:44.553Z,5.20
2018-12-20T05:43:13.149Z,5.20
2018-12-20T05:45:42.444Z,5.20
2018-12-20T05:48:11.048Z,5.20
2018-12-20T05:50:39.603Z,5.20
2018-12-20T05:53:08.123Z,5.30
2018-12-20T05:55:36.656Z,5.30
2018-12-20T05:58:05.179Z,5.30
2018-12-20T06:00:33.706Z,5.30
2018-12-20T06:03:02.522Z,5.30
2018-12-20T06:05:31.151Z,5.30
2018-12-20T06:07:59.706Z,5.30
2018-12-20T06:10:28.218Z,5.30
2018-12-20T06:12:56.722Z,5.30
2018-12-20T06:15:25.252Z,5.30
2018-12-20T06:17:53.771Z,5.30
2018-12-20T06:20:22.505Z,5.30
2018-12-20T06:22:51.061Z,5.30
2018-12-20T06:25:21.281Z,5.30
2018-12-20T06:27:50.052Z,5.30
2018-12-20T06:30:18.587Z,5.30
2018-12-20T06:32:47.092Z,5.30
2018-12-20T06:35:15.590Z,5.30
2018-12-20T06:37:44.082Z,5.30
2018-12-20T06:40:12.605Z,5.30
2018-12-20T06:42:41.689Z,5.30
2018-12-20T06:45:10.140Z,5.30
2018-12-20T06:47:38.659Z,5.30
2018-12-20T06:50:07.304Z,5.30
2018-12-20T06:52:35.821Z,5.20
2018-12-20T06:55:04.630Z,5.20
2018-12-20T06:57:33.086Z,5.20
2018-12-20T07:00:01.628Z,5.20
2018-12-20T07:02:30.341Z,5.20
2018-12-20T07:04:59.126Z,5.20
2018-12-20T07:07:27.645Z,5.10
2018-12-20T07:09:56.128Z,5.10
2018-12-20T07:12:24.709Z,5.10
2018-12-20T07:14:53.183Z,5.10
2018-12-20T07:17:21.723Z,5.10
2018-12-20T07:19:50.247Z,5.10
2018-12-20T07:22:18.977Z,5.10
2018-12-20T07:24:47.532Z,5.10
2018-12-20T07:27:16.049Z,5.10
2018-12-20T07:29:44.560Z,5.10
2018-12-20T07:32:13.118Z,5.20
2018-12-20T07:34:47.828Z,5.10
2018-12-20T07:37:12.184Z,5.10
2018-12-20T07:39:40.669Z,5.10
2018-12-20T07:42:09.209Z,5.10
2018-12-20T07:44:37.728Z,5.20
2018-12-20T07:47:06.327Z,5.20
2018-12-20T07:49:34.843Z,5.20
2018-12-20T07:52:03.508Z,5.20
2018-12-20T07:54:31.995Z,5.20
2018-12-20T07:57:00.576Z,5.20
2018-12-20T07:59:29.071Z,5.20
2018-12-20T08:01:57.583Z,5.20
2018-12-20T08:04:26.085Z,5.20
2018-12-20T08:06:54.653Z,5.20
2018-12-20T08:09:23.285Z,5.20
2018-12-20T08:11:51.844Z,5.30
2018-12-20T08:14:20.357Z,5.20
2018-12-20T08:16:48.887Z,5.20
2018-12-20T08:19:17.413Z,5.30
2018-12-20T08:21:45.930Z,5.30
2018-12-20T08:24:14.444Z,5.30
2018-12-20T08:26:42.979Z,5.30
2018-12-20T08:29:11.511Z,5.30
2018-12-20T08:31:40.066Z,5.40
2018-12-20T08:34:08.586Z,5.40
2018-12-20T08:36:37.105Z,5.40
2018-12-20T08:39:07.885Z,5.40
2018-12-20T08:41:36.347Z,5.40
2018-12-20T08:44:04.893Z,5.50
2018-12-20T08:46:33.502Z,5.50
2018-12-20T08:49:02.024Z,5.60
2018-12-20T08:51:30.577Z,5.60
2018-12-20T08:53:59.130Z,5.60
2018-12-20T08:56:27.615Z,5.60
2018-12-20T08:58:56.116Z,5.70
2018-12-20T09:01:24.639Z,5.70
2018-12-20T09:03:53.200Z,5.70
2018-12-20T09:06:21.714Z,5.70
2018-12-20T09:08:50.357Z,5.70
2018-12-20T09:11:18.951Z,5.70
2018-12-20T09:13:47.467Z,5.80
2018-12-20T09:16:16.016Z,5.80
2018-12-20T09:18:44.868Z,5.80
2018-12-20T09:21:13.401Z,5.80
2018-12-20T09:23:41.882Z,5.80
2018-12-20T09:26:10.379Z,5.80
2018-12-20T09:28:38.873Z,5.90
2018-12-20T09:31:07.420Z,5.90
2018-12-20T09:33:36.315Z,5.90
2018-12-20T09:36:04.877Z,5.90
2018-12-20T09:38:33.334Z,5.90
2018-12-20T09:41:01.872Z,5.90
2018-12-20T09:43:30.482Z,5.90
2018-12-20T09:45:59.059Z,5.90
2018-12-20T09:48:27.509Z,6.00
2018-12-20T09:50:56.106Z,6.00
2018-12-20T09:53:24.759Z,6.00
2018-12-20T09:55:53.387Z,6.00
2018-12-20T09:58:21.866Z,6.00
2018-12-20T10:00:50.432Z,6.00
2018-12-20T10:03:18.942Z,6.00
2018-12-20T10:05:47.529Z,6.00
2018-12-20T10:08:15.988Z,6.10
2018-12-20T10:10:44.565Z,6.00
2018-12-20T10:13:13.168Z,6.10
2018-12-20T10:15:41.678Z,6.10
2018-12-20T10:18:10.208Z,6.10
2018-12-20T10:20:38.765Z,6.10
2018-12-20T10:23:07.261Z,6.10
2018-12-20T10:25:35.972Z,6.10
2018-12-20T10:28:04.647Z,6.10
2018-12-20T10:30:33.719Z,6.20
2018-12-20T10:33:02.244Z,6.10
2018-12-20T10:35:30.813Z,6.20
2018-12-20T10:37:59.359Z,6.20
2018-12-20T10:40:27.888Z,6.20
2018-12-20T10:42:56.448Z,6.30
2018-12-20T10:45:24.989Z,6.40
2018-12-20T10:47:53.525Z,6.40
2018-12-20T10:50:22.013Z,6.50
2018-12-20T10:52:50.533Z,6.50
2018-12-20T10:55:19.267Z,6.60
2018-12-20T10:57:47.908Z,6.60
2018-12-20T11:00:16.516Z,6.60
2018-12-20T11:02:50.432Z,6.70
2018-12-20T11:06:02.018Z,6.60
2018-12-20T11:08:30.695Z,6.70
2018-12-20T11:11:06.019Z,6.70
2018-12-20T11:13:34.568Z,6.70
2018-12-20T11:16:03.044Z,6.70
2018-12-20T11:18:31.595Z,6.80
2018-12-20T11:21:00.178Z,6.80
2018-12-20T11:23:28.789Z,6.80
2018-12-20T11:25:57.407Z,6.90
2018-12-20T11:28:25.928Z,6.90
2018-12-20T11:30:54.427Z,6.90
2018-12-20T11:33:23.437Z,7.00
2018-12-20T11:35:52.020Z,7.00
2018-12-20T11:38:20.612Z,7.00
2018-12-20T11:40:49.170Z,7.00
2018-12-20T11:43:17.867Z,7.00
2018-12-20T11:45:46.489Z,7.00
2018-12-20T11:48:15.087Z,7.00
2018-12-20T11:50:43.631Z,7.00
2018-12-20T11:53:12.103Z,7.00
2018-12-20T11:55:40.566Z,7.00
2018-12-20T11:58:09.020Z,7.10
2018-12-20T12:00:37.635Z,7.10
2018-12-20T12:03:06.376Z,7.10
2018-12-20T12:05:35.425Z,7.10
2018-12-20T12:08:03.953Z,7.10
2018-12-20T12:10:32.502Z,7.10
2018-12-20T12:13:01.018Z,7.10
2018-12-20T12:15:30.077Z,7.10
2018-12-20T12:17:58.914Z,7.10
2018-12-20T12:20:27.491Z,7.10
2018-12-20T12:22:56.002Z,7.10
2018-12-20T12:25:24.525Z,7.10
2018-12-20T12:27:53.066Z,7.00
2018-12-20T12:30:21.708Z,7.10
2018-12-20T12:32:50.254Z,7.10
2018-12-20T12:35:18.741Z,7.10
2018-12-20T12:37:47.209Z,7.10
2018-12-20T12:40:15.729Z,7.10
2018-12-20T12:42:44.192Z,7.10
2018-12-20T12:45:12.737Z,7.10
2018-12-20T12:47:46.643Z,7.10
2018-12-20T12:50:15.214Z,7.10
2018-12-20T12:52:43.790Z,7.10
2018-12-20T12:55:12.264Z,7.10
2018-12-20T12:57:40.886Z,7.10
2018-12-20T13:00:10.074Z,7.10
2018-12-20T13:02:38.810Z,7.10
2018-12-20T13:05:07.464Z,7.10
2018-12-20T13:07:36.035Z,7.10
2018-12-20T13:10:05.179Z,7.10
2018-12-20T13:12:33.832Z,7.10
2018-12-20T13:15:02.455Z,7.10
2018-12-20T13:17:30.935Z,7.20
2018-12-20T13:19:59.504Z,7.20
2018-12-20T13:22:28.001Z,7.20
2018-12-20T13:24:56.581Z,7.20
2018-12-20T13:27:25.005Z,7.20
2018-12-20T13:29:53.580Z,7.20
2018-12-20T13:32:22.133Z,7.20
2018-12-20T13:34:50.654Z,7.20
2018-12-20T13:37:19.288Z,7.20
2018-12-20T13:39:47.776Z,7.20
2018-12-20T13:42:16.211Z,7.20
2018-12-20T13:44:44.658Z,7.20
2018-12-20T13:47:13.127Z,7.20
2018-12-20T13:49:41.660Z,7.20
2018-12-20T13:52:10.378Z,7.20
2018-12-20T13:54:38.833Z,7.20
2018-12-20T13:57:07.356Z,7.10
2018-12-20T13:59:35.876Z,7.10
2018-12-20T14:02:04.344Z,7.10
2018-12-20T14:04:32.859Z,7.10
2018-12-20T14:07:01.377Z,7.10
2018-12-20T14:09:30.214Z,7.10
2018-12-20T14:11:58.933Z,7.00
2018-12-20T14:14:27.419Z,7.00
2018-12-20T14:16:55.930Z,7.00
2018-12-20T14:19:24.517Z,7.00
2018-12-20T14:21:53.065Z,7.00
2018-12-20T14:24:21.535Z,7.00
2018-12-20T14:26:50.241Z,6.90
2018-12-20T14:29:18.717Z,6.90
2018-12-20T14:31:47.226Z,6.90
2018-12-20T14:34:15.820Z,6.90
2018-12-20T14:36:44.349Z,6.90
2018-12-20T14:39:12.815Z,6.90
2018-12-20T14:41:41.385Z,6.90
2018-12-20T14:44:09.902Z,6.90
2018-12-20T14:46:38.436Z,6.90
2018-12-20T14:49:06.912Z,6.90
2018-12-20T14:51:35.371Z,6.90
2018-12-20T14:54:03.935Z,6.90
2018-12-20T14:56:32.430Z,6.90
2018-12-20T14:59:00.913Z,6.90
2018-12-20T15:01:29.399Z,6.80
2018-12-20T15:03:58.036Z,6.90
2018-12-20T15:06:26.516Z,6.90
2018-12-20T15:08:55.107Z,6.80
2018-12-20T15:11:23.567Z,6.80
2018-12-20T15:13:52.018Z,6.80
2018-12-20T15:16:20.585Z,6.80
2018-12-20T15:18:49.102Z,6.80
2018-12-20T15:21:17.641Z,6.80
2018-12-20T15:23:46.119Z,6.80
2018-12-20T15:26:14.689Z,6.80
2018-12-20T15:28:43.173Z,6.80
2018-12-20T15:31:11.737Z,6.80
2018-12-20T15:33:40.344Z,6.80
2018-12-20T15:36:08.964Z,6.80
2018-12-20T15:38:37.443Z,6.80
2018-12-20T15:41:05.949Z,6.80
2018-12-20T15:43:34.384Z,6.80
2018-12-20T15:46:03.038Z,6.80
2018-12-20T15:48:31.848Z,6.80
2018-12-20T15:51:00.356Z,6.80
2018-12-20T15:53:28.875Z,6.70
2018-12-20T15:55:57.526Z,6.70
2018-12-20T15:58:26.004Z,6.70
2018-12-20T16:00:55.429Z,6.70
2018-12-20T16:03:24.109Z,6.70
2018-12-20T16:05:52.602Z,6.70
2018-12-20T16:08:21.184Z,6.70
2018-12-20T16:10:50.482Z,6.70
2018-12-20T16:13:19.093Z,6.60
2018-12-20T16:15:47.620Z,6.60
2018-12-20T16:18:16.128Z,6.60
2018-12-20T16:20:44.752Z,6.60
2018-12-20T16:23:13.333Z,6.60
2018-12-20T16:25:41.811Z,6.60
2018-12-20T16:28:10.278Z,6.60
2018-12-20T16:30:38.880Z,6.60
2018-12-20T16:33:07.504Z,6.60
2018-12-20T16:35:35.995Z,6.60
2018-12-20T16:38:04.578Z,6.60
2018-12-20T16:40:33.057Z,6.60
2018-12-20T16:43:01.624Z,6.60
2018-12-20T16:45:30.072Z,6.60
2018-12-20T16:47:58.531Z,6.60
2018-12-20T16:50:26.988Z,6.60
2018-12-20T16:52:55.454Z,6.60
2018-12-20T16:55:23.930Z,6.60
2018-12-20T16:57:52.491Z,6.60
2018-12-20T17:00:21.102Z,6.60
2018-12-20T17:02:49.577Z,6.70
2018-12-20T17:05:18.119Z,6.60
2018-12-20T17:07:46.669Z,6.60
2018-12-20T17:10:15.115Z,6.60
2018-12-20T17:12:45.152Z,6.60
2018-12-20T17:15:15.823Z,6.60
2018-12-20T17:17:44.923Z,6.60
2018-12-20T17:20:13.381Z,6.60
2018-12-20T17:22:42.061Z,6.60
2018-12-20T17:25:10.553Z,6.60
2018-12-20T17:27:39.043Z,6.60
2018-12-20T17:30:09.781Z,6.60
2018-12-20T17:32:38.347Z,6.50
2018-12-20T17:35:06.833Z,6.50
2018-12-20T17:37:35.331Z,6.50
2018-12-20T17:40:04.005Z,6.50
2018-12-20T17:42:32.508Z,6.50
2018-12-20T17:45:00.935Z,6.50
2018-12-20T17:47:29.458Z,6.50
2018-12-20T17:49:57.912Z,6.50
2018-12-20T17:52:26.384Z,6.40
2018-12-20T17:54:54.826Z,6.40
2018-12-20T17:57:23.355Z,6.40
2018-12-20T17:59:51.817Z,6.40
2018-12-20T18:02:20.350Z,6.30
2018-12-20T18:04:48.979Z,6.30
2018-12-20T18:07:17.537Z,6.30
2018-12-20T18:09:46.099Z,6.30
2018-12-20T18:12:14.588Z,6.30
2018-12-20T18:14:43.132Z,6.30
2018-12-20T18:17:11.584Z,6.30
2018-12-20T18:19:40.153Z,6.40
2018-12-20T18:22:08.745Z,6.40
2018-12-20T18:24:37.424Z,6.40
2018-12-20T18:27:06.991Z,6.40
2018-12-20T18:29:35.525Z,6.50
2018-12-20T18:32:04.425Z,6.50
2018-12-20T18:34:33.081Z,6.50
2018-12-20T18:37:01.539Z,6.50
2018-12-20T18:39:30.016Z,6.50
2018-12-20T18:41:58.472Z,6.60
2018-12-20T18:44:26.946Z,6.50
2018-12-20T18:46:55.613Z,6.50
2018-12-20T18:49:24.405Z,6.50
2018-12-20T18:51:53.186Z,6.60
2018-12-20T18:54:21.739Z,6.60
2018-12-20T18:56:50.438Z,6.60
2018-12-20T18:59:19.000Z,6.50
2018-12-20T19:01:47.591Z,6.60
2018-12-20T19:04:16.057Z,6.60
2018-12-20T19:06:44.479Z,6.60
2018-12-20T19:09:13.016Z,6.60
2018-12-20T19:11:41.507Z,6.60
2018-12-20T19:14:10.002Z,6.50
2018-12-20T19:16:38.466Z,6.50
2018-12-20T19:19:06.966Z,6.50
2018-12-20T19:21:35.572Z,6.50
2018-12-20T19:24:04.394Z,6.50
2018-12-20T19:26:32.956Z,6.50
2018-12-20T19:29:01.461Z,6.50
2018-12-20T19:31:30.040Z,6.50
2018-12-20T19:33:58.880Z,6.50
2018-12-20T19:36:27.402Z,6.40
2018-12-20T19:38:56.036Z,6.40
2018-12-20T19:41:24.551Z,6.50
2018-12-20T19:43:53.110Z,6.50
2018-12-20T19:46:21.630Z,6.50
2018-12-20T19:48:50.204Z,6.50
2018-12-20T19:51:18.690Z,6.50
2018-12-20T19:53:47.224Z,6.50
2018-12-20T19:56:17.201Z,6.50
2018-12-20T19:58:45.660Z,6.60
2018-12-20T20:01:14.213Z,6.60
2018-12-20T20:03:43.006Z,6.60
2018-12-20T20:06:11.662Z,6.60
2018-12-20T20:08:40.107Z,6.60
2018-12-20T20:11:08.913Z,6.60
2018-12-20T20:13:37.395Z,6.70
2018-12-20T20:16:06.206Z,6.70
2018-12-20T20:18:34.748Z,6.70
2018-12-20T20:21:03.316Z,6.70
2018-12-20T20:23:31.834Z,6.70
2018-12-20T20:26:00.378Z,6.70
2018-12-20T20:28:29.176Z,6.70
2018-12-20T20:30:57.818Z,6.70
2018-12-20T20:33:26.556Z,6.70
2018-12-20T20:35:55.071Z,6.70
2018-12-20T20:38:24.249Z,6.70
2018-12-20T20:40:52.694Z,6.70
2018-12-20T20:43:21.221Z,6.70
2018-12-20T20:45:49.748Z,6.70
2018-12-20T20:48:18.265Z,6.70
2018-12-20T20:50:46.862Z,6.70
2018-12-20T20:53:15.571Z,6.70
2018-12-20T20:55:44.535Z,6.70
2018-12-20T20:58:13.022Z,6.70
2018-12-20T21:00:41.552Z,6.70
2018-12-20T21:03:10.108Z,6.70
2018-12-20T21:05:38.564Z,6.70
2018-12-20T21:08:07.170Z,6.70
2018-12-20T21:10:35.716Z,6.70
2018-12-20T21:13:04.431Z,6.70
2018-12-20T21:15:32.900Z,6.70
2018-12-20T21:18:01.461Z,6.70
2018-12-20T21:20:30.807Z,6.70
2018-12-20T21:22:59.734Z,6.70
2018-12-20T21:25:28.229Z,6.70
2018-12-20T21:27:56.823Z,6.70
2018-12-20T21:30:25.318Z,6.70
2018-12-20T21:32:53.860Z,6.70
2018-12-20T21:35:22.317Z,6.70
2018-12-20T21:37:50.792Z,6.80
2018-12-20T21:40:19.406Z,6.70
2018-12-20T21:42:47.909Z,6.70
2018-12-20T21:45:16.416Z,6.80
2018-12-20T21:47:44.978Z,6.80
2018-12-20T21:50:13.390Z,6.70
2018-12-20T21:52:42.044Z,6.80
2018-12-20T21:55:10.979Z,6.80
2018-12-20T21:57:39.937Z,6.80
2018-12-20T22:00:10.148Z,6.70
2018-12-20T22:02:38.802Z,6.70
2018-12-20T22:05:07.834Z,6.70
2018-12-20T22:07:36.334Z,6.70
2018-12-20T22:10:06.037Z,6.70
2018-12-20T22:12:34.666Z,6.60
2018-12-20T22:15:03.504Z,6.60
2018-12-20T22:17:31.976Z,6.60
2018-12-20T22:20:00.398Z,6.60
2018-12-20T22:22:28.910Z,6.70
2018-12-20T22:24:57.478Z,6.70
2018-12-20T22:27:26.093Z,6.70
2018-12-20T22:29:54.547Z,6.70
2018-12-20T22:32:23.107Z,6.70
2018-12-20T22:34:51.901Z,6.70
2018-12-20T22:37:20.488Z,6.70
2018-12-20T22:39:48.935Z,6.70
2018-12-20T22:42:17.475Z,6.80
2018-12-20T22:44:45.918Z,6.70
2018-12-20T22:47:14.398Z,6.70
2018-12-20T22:49:42.845Z,6.70
2018-12-20T22:52:11.388Z,6.70
2018-12-20T22:54:39.867Z,6.70
2018-12-20T22:57:08.353Z,6.70
2018-12-20T22:59:36.837Z,6.70
2018-12-20T23:02:05.268Z,6.70
2018-12-20T23:04:33.731Z,6.70
2018-12-20T23:07:02.150Z,6.70
2018-12-20T23:09:30.625Z,6.70
2018-12-20T23:11:59.138Z,6.70
2018-12-20T23:14:27.672Z,6.70
2018-12-20T23:16:56.111Z,6.70
2018-12-20T23:19:24.623Z,6.70
2018-12-20T23:21:53.104Z,6.70
2018-12-20T23:24:21.657Z,6.70
2018-12-20T23:26:50.231Z,6.70
2018-12-20T23:29:18.713Z,6.70
2018-12-20T23:31:48.022Z,6.70
2018-12-20T23:34:16.695Z,6.80
2018-12-20T23:36:46.861Z,6.80
2018-12-20T23:39:15.875Z,6.80
2018-12-20T23:41:45.384Z,6.80
2018-12-20T23:44:14.143Z,6.80
2018-12-20T23:46:42.809Z,6.80
2018-12-20T23:49:11.391Z,6.80
2018-12-20T23:51:45.289Z,6.80
2018-12-20T23:54:11.914Z,6.90
2018-12-20T23:56:40.605Z,6.90
2018-12-20T23:59:09.390Z,6.90
